Hit Tracker is now ESPN Home Run Tracker! Hit Tracker founder Greg Rybarczyk is now collaborating with the ESPN Stats & Information Group to continue tracking all MLB home runs, and helping baseball fans know "How Far It Really Went!™" Please credit any information on this site to ESPN Stats & Information Group. For more information and analysis on home runs, please contact founder Greg Rybarczyk. E-Mail ESPN Home Run Tracker
Main Page | Ballparks | Park Overlays | Glossary | Highlight Homers | Feedback | Bio | 3 Types of HR's | AAA Home Run Derby Last Updated: August 16, 2017, 10:39 pm PST
If you want to know "How Far It Really Went!", then you've come to the right place! Welcome to the ESPN Home Run Tracker, where you can find accurate, transparently verifiable distances for every home run hit in MLB games. Please also check out the ESPN MLB Scoreboard throughout the 2017 season! Contact us at grybar@hittrackeronline.com.
Season:
Ballpark detail for Coors Field
Ballpark # of Home Runs HR per game Avg.
True
Distance
Avg.
Speed
Off
Bat
Avg.
Std.
Dist.
Coors Field 156 2.64 413.7 104.3 400.4

Scatter Plot of Home Runs Coors Field
 Overlay Ballpark:
Without range rings   With range rings

2017 Season Home Runs for Coors Field
Click headers to sort
Date Video Path Hitter Hitter
Team
Pitcher Pitcher
Team
INN ^ Ballpark Type/
Luck
True
Dist.
Speed
Off
Bat
Elev.
Angle
Horiz.
Angle
Apex Impact Due To: Std.
Dist.
#
Parks
Wind Temp. Alt.
04/10/17 Video View Reynolds, Mark COL Maurer, Brandon SD 9 Coors Field JE 416 101.3 32.1 101.0 110 4 -5 17 400 28
04/25/17 Video View Parra, Gerardo COL Kelley, Shawn WSH 9 Coors Field JE 435 106.8 23.4 89.3 78 0 -2 4 432 28
04/27/17 Video View Murphy, Daniel WSH Oberg, Scott COL 9 Coors Field PL 396 103.0 34.8 74.9 135 -22 -4 23 393 30
05/09/17 Video View Bryant, Kris CHC Hoffman, Jeff COL 9 Coors Field JE 370 99.0 29.8 59.4 78 -1 -1 10 363 26
05/28/17 Video View DeJong, Paul STL Holland, Greg COL 9 Coors Field PL 393 101.8 39.2 103.9 150 -1 1 31 361 4
06/18/17 Video View Pence, Hunter SF McGee, Jake COL 9 Coors Field PL 440 106.8 33.0 102.3 130 -11 4 23 421 30
06/18/17 Video View Arenado, Nolan COL Melancon, Mark SF 9 Coors Field JE 376 95.2 33.6 111.3 96 1 3 16 356 8
07/08/17 Video View Anderson, Tim CHW Holland, Greg COL 9 Coors Field PL 443 102.8 31.3 87.6 108 12 0 16 417 27
04/25/17 Video View Blackmon, Charlie COL Blanton, Joe WSH 8 Coors Field JE 367 98.8 37.9 60.7 121 0 -9 24 351 28
05/09/17 Video View Baez, Javier CHC Dunn, Mike COL 8 Coors Field PL 379 97.9 37.3 71.9 126 0 -3 24 357 10
05/12/17 Video View Bellinger, Cody LAD McGee, Jake COL 8 Coors Field PL 397 97.3 37.9 66.0 115 33 -2 24 347 1
05/14/17 Video View Valaika, Pat COL Hatcher, Chris LAD 8 Coors Field PL 395 99.1 34.5 106.0 116 -3 0 20 377 24
05/26/17 Video View Blackmon, Charlie COL Martinez, Carlos STL 8 Coors Field PL 387 105.0 39.2 64.5 149 -5 -5 34 360 28
05/26/17 Video View Reynolds, Mark COL Bowman, Matt STL 8 Coors Field ND 420 108.4 28.5 117.3 90 -5 -2 12 413 30
06/15/17 Video View Hundley, Nick SF Dunn, Mike COL 8 Coors Field JE 414 106.0 23.3 80.0 68 0 0 3 411 28
06/15/17 Video View Crawford, Brandon SF McGee, Jake COL 8 Coors Field JE 385 101.8 26.5 113.0 70 0 0 7 378 24
06/20/17 Video View Peralta, David ARI Rusin, Chris COL 8 Coors Field ND 450 114.8 28.0 56.2 89 0 2 13 435 30
06/20/17 Video View Goldschmidt, Paul ARI Ottavino, Adam COL 8 Coors Field PL 391 100.9 28.8 66.5 80 0 1 10 380 28
07/04/17 Video View Schebler, Scott CIN Ottavino, Adam COL 8 Coors Field JE 428 111.8 21.0 80.4 62 0 0 2 426 28
07/04/17 Video View Gennett, Scooter CIN Ottavino, Adam COL 8 Coors Field PL 405 103.3 36.9 69.7 135 0 1 28 377 29
07/06/17 Video View Duvall, Adam CIN Oberg, Scott COL 8 Coors Field PL 400 98.9 31.0 74.5 94 0 3 14 384 23
07/17/17 Video View Sanchez, Hector SD McGee, Jake COL 8 Coors Field JE 399 101.5 26.5 75.4 76 0 0 7 392 26
07/23/17 Video View Reynolds, Mark COL Marinez, Jhan PIT 8 Coors Field ND 465 108.6 29.6 96.4 115 -2 3 17 447 30
08/01/17 Video View Bruce, Jay NYM Rusin, Chris COL 8 Coors Field PL 388 101.9 37.4 59.1 123 0 -1 24 364 30
08/05/17 Video View Nava, Daniel PHI Rosscup, Zac COL 8 Coors Field JE 423 104.6 24.3 94.0 77 0 -1 4 420 25
04/11/17 Video View Arenado, Nolan COL Diaz, Miguel SD 7 Coors Field JE 397 98.8 30.3 76.4 93 1 -2 13 385 19
04/24/17 Video View Blackmon, Charlie COL Romero, Enny WSH 7 Coors Field ND 415 107.2 29.6 63.6 96 -7 -3 14 410 30
04/26/17 Video View Murphy, Daniel WSH Rusin, Chris COL 7 Coors Field PL 398 102.6 32.5 64.3 104 -3 -5 16 388 30
04/27/17 Video View Harper, Bryce WSH Lyles, Jordan COL 7 Coors Field ND 441 113.3 22.1 77.5 71 -1 -1 4 437 29
05/07/17 Video View Blackmon, Charlie COL Hoover, J.J. ARI 7 Coors Field ND 433 104.3 32.7 71.0 110 11 3 19 402 30
05/28/17 Video View Pham, Tommy STL Rusin, Chris COL 7 Coors Field PL 439 110.9 20.4 88.3 66 2 0 0 437 29
05/30/17 Video View Cano, Robinson SEA Dunn, Mike COL 7 Coors Field PL 436 106.2 25.9 80.8 84 0 0 8 427 30
06/06/17 Video View Zimmer, Bradley CLE Senzatela, Antonio COL 7 Coors Field PL 408 102.4 29.2 108.5 89 1 -1 12 397 30
06/06/17 Video View Reynolds, Mark COL Goody, Nick CLE 7 Coors Field PL 460 109.4 26.0 96.4 94 0 -1 10 451 30
06/07/17 Video View Ramirez, Jose CLE Freeland, Kyle COL 7 Coors Field JE 440 105.0 27.3 85.3 94 -1 1 10 429 29
06/15/17 Video View Posey, Buster SF Oberg, Scott COL 7 Coors Field PL 438 105.3 31.1 101.7 113 0 0 17 421 30
06/18/17 Video View Story, Trevor COL Blach, Ty SF 7 Coors Field ND 434 107.8 28.8 109.4 98 -8 2 13 423 30
06/18/17 Video View Valaika, Pat COL Blach, Ty SF 7 Coors Field PL 388 101.8 37.1 110.1 135 -19 5 27 371 29
06/21/17 Video View Ahmed, Nick ARI Estevez, Carlos COL 7 Coors Field PL 375 97.1 34.8 66.0 106 -4 1 18 360 20
07/07/17 Video View Anderson, Tim CHW Marquez, German COL 7 Coors Field PL 445 105.2 28.1 87.7 100 1 0 12 433 30
07/17/17 Video View Parra, Gerardo COL Quackenbush, Kevin SD 7 Coors Field JE 404 104.4 24.5 104.1 69 0 0 5 399 28
07/18/17 Video View Asuaje, Carlos SD Lyles, Jordan COL 7 Coors Field PL 421 102.7 27.7 80.9 89 -1 1 10 411 28
08/04/17 Video View Arenado, Nolan COL Pinto, Ricardo PHI 7 Coors Field JE 432 108.9 22.6 97.8 71 0 0 3 429 30
08/16/17 Video View Story, Trevor COL Fried, Max ATL 7 Coors Field PL 389 102.4 38.3 111.8 140 0 -4 30 362 21
04/11/17 Video View Blackmon, Charlie COL Weaver, Jered SD 6 Coors Field PL 452 109.0 23.8 89.0 86 -1 -1 6 447 30
04/10/17 Video View LeMahieu, DJ COL Torres, Jose SD 6 Coors Field JE 376 98.5 29.8 63.6 79 3 -3 10 365 22
04/10/17 Video View Renfroe, Hunter SD Chatwood, Tyler COL 6 Coors Field JE 366 96.7 35.3 58.6 100 3 -4 17 351 24
04/10/17 Video View Myers, Wil SD Chatwood, Tyler COL 6 Coors Field JE 393 97.8 32.9 77.0 106 1 -4 16 379 9
04/08/17 Video View Parra, Gerardo COL Kershaw, Clayton LAD 6 Coors Field PL 430 101.8 31.7 91.7 113 4 -2 16 412 19
04/08/17 Video View Reynolds, Mark COL Kershaw, Clayton LAD 6 Coors Field PL 432 103.9 33.9 100.5 127 5 -2 22 407 30
04/22/17 Video View Panik, Joe SF Senzatela, Antonio COL 6 Coors Field PL 398 100.0 33.9 72.6 113 0 -4 19 382 28
04/24/17 Video View Zimmerman, Ryan WSH Anderson, Tyler COL 6 Coors Field JE 426 102.7 28.5 89.1 101 -3 -2 11 419 28
04/24/17 Video View Reynolds, Mark COL Turner, Jacob WSH 6 Coors Field PL 370 96.4 34.1 111.9 102 -4 -4 17 360 14
04/25/17 Video View Turner, Trea WSH Lyles, Jordan COL 6 Coors Field JE 370 98.1 30.8 61.6 83 -1 -4 11 363 26
05/07/17 Video View Valaika, Pat COL Hoover, J.J. ARI 6 Coors Field PL 393 99.7 37.3 121.6 114 15 2 22 356 26
05/09/17 Video View Reynolds, Mark COL Floro, Dylan CHC 6 Coors Field JE 408 103.8 24.9 78.3 73 0 -1 5 403 27
05/28/17 Video View Gyorko, Jedd STL Marquez, German COL 6 Coors Field JE/L 429 100.0 34.7 89.0 120 19 0 20 392 0
05/28/17 Video View Garcia, Greg STL Marquez, German COL 6 Coors Field PL 447 103.7 31.3 83.9 108 14 0 16 419 28
06/16/17 Video View Story, Trevor COL Samardzija, Jeff SF 6 Coors Field JE 430 102.2 29.3 84.3 98 1 3 12 414 23
07/03/17 Video View Gennett, Scooter CIN Hoffman, Jeff COL 6 Coors Field ND 453 110.3 27.9 73.2 97 0 1 13 439 30
07/03/17 Video View Votto, Joey CIN Hoffman, Jeff COL 6 Coors Field JE 437 104.0 33.6 85.4 129 0 1 21 414 25
07/03/17 Video View Tapia, Raimel COL Castillo, Luis CIN 6 Coors Field PL 382 100.6 30.0 58.8 80 0 1 11 371 29
07/04/17 Video View Peraza, Jose CIN Freeland, Kyle COL 6 Coors Field ND 438 110.3 29.2 118.9 92 1 2 14 422 30
07/07/17 Video View Arenado, Nolan COL Beck, Chris CHW 6 Coors Field ND 433 108.3 29.5 114.2 96 0 0 14 419 30
07/09/17 Video View Blackmon, Charlie COL Rodon, Carlos CHW 6 Coors Field ND 469 113.2 23.3 83.7 82 -1 2 6 462 30
07/09/17 Video View Valaika, Pat COL Beck, Chris CHW 6 Coors Field ND 423 105.4 31.7 114.9 103 -2 5 17 403 30
07/19/17 Video View Spangenberg, Cory SD Gray, Jon COL 6 Coors Field JE 435 106.0 24.1 87.9 77 0 2 5 429 28
07/19/17 Video View Arenado, Nolan COL Quackenbush, Kevin SD 6 Coors Field PL 391 102.0 30.4 123.9 83 0 4 11 376 30
07/21/17 Video View Mercer, Jordy PIT Lyles, Jordan COL 6 Coors Field ND 418 107.2 28.9 118.3 87 0 0 12 406 30
07/21/17 Video View Arenado, Nolan COL Williams, Trevor PIT 6 Coors Field ND 424 107.3 27.3 110.9 84 0 -1 10 414 30
07/23/17 Video View Freese, David PIT Freeland, Kyle COL 6 Coors Field PL 445 110.0 22.4 94.6 73 0 1 3 442 30
07/23/17 Video View Story, Trevor COL Nova, Ivan PIT 6 Coors Field ND 412 110.3 24.8 118.8 68 -1 1 7 404 30
07/23/17 Video View Valaika, Pat COL LeBlanc, Wade PIT 6 Coors Field ND 419 106.2 33.9 120.9 112 -2 5 20 396 30
07/23/17 Video View Reynolds, Mark COL LeBlanc, Wade PIT 6 Coors Field PL 410 101.9 32.5 69.5 105 -2 4 17 390 30
08/01/17 Video View Arenado, Nolan COL Matz, Steven NYM 6 Coors Field JE 421 103.1 26.8 81.4 85 0 0 8 413 28
08/02/17 Video View Granderson, Curtis NYM Chatwood, Tyler COL 6 Coors Field PL 431 104.3 27.7 82.2 95 -2 0 10 422 29
08/03/17 Video View Reynolds, Mark COL Montero, Rafael NYM 6 Coors Field PL 404 107.7 24.9 114.6 67 1 -1 6 398 30
08/15/17 N/A View Markakis, Nick ATL Freeland, Kyle COL 6 Coors Field JE 433 102.8 30.4 83.2 105 6 -2 15 416 26
04/08/17 Video View Toles, Andrew LAD Gray, Jon COL 5 Coors Field JE 393 102.1 25.9 107.5 70 1 0 7 386 25
04/07/17 Video View Garneau, Dustin COL Ryu, Hyun-Jin LAD 5 Coors Field ND 405 105.3 31.0 125.7 90 1 1 14 391 30
04/21/17 Video View Belt, Brandon SF Chatwood, Tyler COL 5 Coors Field PL 449 106.8 29.1 87.9 115 -3 -6 14 442 30
04/26/17 Video View Turner, Trea WSH Chatwood, Tyler COL 5 Coors Field PL 440 104.8 30.1 95.6 113 1 -4 15 428 29
04/26/17 Video View Zimmerman, Ryan WSH Chatwood, Tyler COL 5 Coors Field JE 394 104.4 25.0 70.3 67 0 -1 6 389 29
04/27/17 Video View Eaton, Adam WSH Senzatela, Antonio COL 5 Coors Field ND 413 104.5 30.2 70.7 102 -6 -4 14 407 30
05/11/17 Video View Van Slyke, Scott LAD Hoffman, Jeff COL 5 Coors Field JE 435 108.2 21.9 90.0 70 1 0 2 432 28
05/13/17 Video View Eibner, Brett LAD Anderson, Tyler COL 5 Coors Field ND 464 108.4 27.0 92.0 100 0 2 11 451 30
05/14/17 Video View Arenado, Nolan COL Romo, Sergio LAD 5 Coors Field ND 451 107.4 29.7 103.3 105 5 1 16 431 30
05/27/17 Video View Pham, Tommy STL Freeland, Kyle COL 5 Coors Field PL 406 103.6 36.3 106.8 138 0 -8 27 385 30
05/29/17 Video View Story, Trevor COL Gaviglio, Sam SEA 5 Coors Field PL 400 102.1 27.9 70.8 80 0 0 9 391 30
06/06/17 Video View Chisenhall, Lonnie CLE Senzatela, Antonio COL 5 Coors Field PL 402 104.0 26.3 70.4 74 0 0 7 395 30
06/06/17 Video View Reynolds, Mark COL McAllister, Zach CLE 5 Coors Field PL 387 99.5 36.9 55.5 109 14 -1 20 356 30
06/16/17 Video View Samardzija, Jeff SF Senzatela, Antonio COL 5 Coors Field JE 440 111.6 21.0 84.3 64 0 0 1 439 27
06/16/17 Video View Desmond, Ian COL Samardzija, Jeff SF 5 Coors Field JE/L 373 95.4 34.2 63.6 95 2 4 16 351 16
06/18/17 Video View Crawford, Brandon SF Chatwood, Tyler COL 5 Coors Field PL 361 95.7 36.8 120.6 107 -4 2 19 343 20
07/18/17 Video View Myers, Wil SD Senzatela, Antonio COL 5 Coors Field PL 444 111.3 22.8 99.8 73 0 0 5 439 30
07/19/17 Video View Arenado, Nolan COL Quackenbush, Kevin SD 5 Coors Field JE 421 103.3 25.9 82.3 79 0 3 7 412 24
07/23/17 Video View Blackmon, Charlie COL Nova, Ivan PIT 5 Coors Field PL 400 102.2 28.7 112.5 83 -1 1 10 389 30
08/03/17 Video View Blackmon, Charlie COL Montero, Rafael NYM 5 Coors Field PL 380 97.2 35.3 108.9 113 -1 -2 20 363 15
08/15/17 Video View Story, Trevor COL Newcomb, Sean ATL 5 Coors Field PL 403 98.0 34.9 73.6 109 16 -1 20 370 11
04/11/17 Video View Gonzalez, Carlos COL Weaver, Jered SD 4 Coors Field PL 400 103.0 30.6 64.4 93 -3 -2 13 391 30
04/21/17 Video View Story, Trevor COL Cueto, Johnny SF 4 Coors Field PL 388 100.2 34.5 63.3 107 4 -7 19 372 29
04/21/17 Video View Blackmon, Charlie COL Cueto, Johnny SF 4 Coors Field ITP/L 336 110.8 16.0 77.7 32 -1 -2 0 336 0
04/22/17 Video View Story, Trevor COL Moore, Matt SF 4 Coors Field PL 411 102.2 30.6 108.3 97 2 -1 14 396 30
04/22/17 Video View Blackmon, Charlie COL Moore, Matt SF 4 Coors Field JE 426 102.6 27.2 90.7 91 0 -1 9 418 25
04/23/17 Video View Parra, Gerardo COL Samardzija, Jeff SF 4 Coors Field JE 389 105.9 23.3 69.7 59 0 0 4 384 24
04/25/17 Video View Reynolds, Mark COL Ross, Joe WSH 4 Coors Field PL 441 106.9 24.7 91.5 85 0 -3 6 438 30
05/05/17 Video View Reynolds, Mark COL Greinke, Zack ARI 4 Coors Field JE 418 101.3 33.9 100.6 120 4 0 20 395 26
05/14/17 Video View Valaika, Pat COL Urias, Julio LAD 4 Coors Field JE 426 104.2 24.7 91.8 80 -1 0 5 421 25
05/28/17 Video View Parra, Gerardo COL Lynn, Lance STL 4 Coors Field PL 388 99.2 33.5 70.0 108 -8 0 18 376 29
06/20/17 Video View Gonzalez, Carlos COL Greinke, Zack ARI 4 Coors Field PL 430 102.8 35.0 88.8 135 -2 5 23 403 11
06/22/17 Video View Goldschmidt, Paul ARI Senzatela, Antonio COL 4 Coors Field PL 387 96.8 37.7 70.1 119 15 2 24 349 1
07/03/17 Video View Blackmon, Charlie COL Castillo, Luis CIN 4 Coors Field PL 397 99.8 31.8 70.7 99 -2 1 15 383 28
07/05/17 Video View Valaika, Pat COL Feldman, Scott CIN 4 Coors Field JE 397 100.4 27.3 75.2 77 0 1 8 388 23
07/07/17 Video View Blackmon, Charlie COL Holland, Derek CHW 4 Coors Field JE 395 110.2 21.5 69.3 55 0 0 3 391 27
07/19/17 Video View Arenado, Nolan COL Richard, Clayton SD 4 Coors Field ND 441 109.1 30.6 112.6 108 -9 6 17 425 30
07/19/17 Video View Story, Trevor COL Richard, Clayton SD 4 Coors Field PL 415 102.2 32.0 107.1 107 -6 5 17 397 30
07/19/17 Video View Blackmon, Charlie COL Quackenbush, Kevin SD 4 Coors Field JE 442 104.3 28.4 86.2 98 0 4 11 427 29
07/22/17 Video View Bell, Josh PIT Marquez, German COL 4 Coors Field JE 402 113.4 21.1 66.0 54 0 1 5 396 29
08/02/17 Video View Bruce, Jay NYM Chatwood, Tyler COL 4 Coors Field PL 397 99.9 29.3 107.0 86 1 0 11 386 26
08/03/17 Video View Cespedes, Yoenis NYM Marquez, German COL 4 Coors Field ND 411 111.8 24.3 120.8 66 0 -1 7 405 30
08/15/17 N/A View Reynolds, Mark COL Newcomb, Sean ATL 4 Coors Field PL 376 103.4 41.0 116.0 154 4 -2 37 338 4
08/16/17 Video View Reynolds, Mark COL Jackson, Luke ATL 4 Coors Field JE 433 105.1 25.1 88.7 83 0 -1 6 428 28
08/16/17 N/A View Story, Trevor COL Jackson, Luke ATL 4 Coors Field JE 374 111.9 20.5 123.7 47 0 -1 5 370 24
04/09/17 Video View Blackmon, Charlie COL Maeda, Kenta LAD 3 Coors Field PL 436 104.2 28.8 86.2 105 -4 -2 12 427 28
05/05/17 Video View Goldschmidt, Paul ARI Marquez, German COL 3 Coors Field JE 377 111.7 21.4 130.3 50 0 1 6 371 30
05/06/17 Video View Arenado, Nolan COL Corbin, Patrick ARI 3 Coors Field PL/L 397 97.1 35.1 104.7 112 9 1 20 368 15
05/29/17 Video View Blackmon, Charlie COL Gaviglio, Sam SEA 3 Coors Field JE/L 401 109.1 21.4 75.6 57 0 0 2 399 26
06/06/17 Video View Gonzalez, Carlos COL Clevinger, Mike CLE 3 Coors Field JE 426 111.3 20.4 82.2 61 1 0 1 424 29
06/16/17 Video View Span, Denard SF Senzatela, Antonio COL 3 Coors Field PL 384 99.1 32.8 57.7 91 1 4 14 364 30
06/22/17 Video View Owings, Chris ARI Senzatela, Antonio COL 3 Coors Field PL 405 106.9 23.4 106.2 65 -1 1 4 401 30
08/02/17 Video View Gonzalez, Carlos COL Flexen, Chris NYM 3 Coors Field JE 437 109.3 21.2 88.7 69 2 0 1 433 28
08/05/17 Video View Valaika, Pat COL Pivetta, Nick PHI 3 Coors Field ND 406 110.2 24.5 120.2 65 0 0 7 399 30
04/09/17 Video View Seager, Corey LAD Anderson, Tyler COL 2 Coors Field JE 433 106.1 23.9 89.1 75 0 -1 4 429 28
04/25/17 Video View Gonzalez, Carlos COL Ross, Joe WSH 2 Coors Field ND 411 105.7 33.3 65.8 119 -5 -9 21 401 30
05/07/17 Video View Reynolds, Mark COL Walker, Taijuan ARI 2 Coors Field PL 444 103.7 32.1 98.6 114 13 1 18 415 27
05/14/17 Video View Puig, Yasiel LAD Senzatela, Antonio COL 2 Coors Field PL 389 114.4 20.7 124.3 49 1 1 6 382 30
05/30/17 Video View Seager, Kyle SEA Anderson, Tyler COL 2 Coors Field PL 430 103.5 29.1 80.4 98 0 1 13 416 28
06/21/17 Video View Reynolds, Mark COL Walker, Taijuan ARI 2 Coors Field JE 419 100.9 30.2 83.0 101 -1 2 13 405 16
07/05/17 Video View Gray, Jon COL Feldman, Scott CIN 2 Coors Field PL 457 107.2 27.0 93.4 96 0 3 10 443 30
07/07/17 Video View LeMahieu, DJ COL Holland, Derek CHW 2 Coors Field JE 428 103.3 27.8 97.7 92 0 1 10 417 30
07/17/17 Video View Blash, Jabari SD Marquez, German COL 2 Coors Field PL 454 108.8 24.7 85.9 85 0 1 7 446 30
08/06/17 Video View Franco, Maikel PHI Hoffman, Jeff COL 2 Coors Field PL 391 100.4 28.6 109.5 82 -2 0 10 383 28
04/12/17 Video View Schimpf, Ryan SD Freeland, Kyle COL 1 Coors Field JE 390 104.9 23.6 71.7 61 0 0 4 385 22
04/11/17 Video View Margot, Manuel SD Senzatela, Antonio COL 1 Coors Field PL 421 104.9 29.0 104.9 101 -8 -1 13 415 30
04/08/17 Video View Arenado, Nolan COL Kershaw, Clayton LAD 1 Coors Field JE 433 109.1 21.9 94.7 65 -1 0 2 432 27
04/22/17 Video View Reynolds, Mark COL Moore, Matt SF 1 Coors Field ND 418 106.6 36.0 114.7 134 1 -2 28 391 30
04/27/17 Video View Arenado, Nolan COL Gonzalez, Gio WSH 1 Coors Field ND 420 107.1 29.8 115.9 95 -1 -4 14 411 30
05/05/17 Video View Goldschmidt, Paul ARI Marquez, German COL 1 Coors Field PL 451 106.0 30.2 94.6 115 -3 2 16 435 30
05/06/17 Video View Reynolds, Mark COL Corbin, Patrick ARI 1 Coors Field JE 413 111.2 21.3 104.4 57 0 0 2 410 30
05/14/17 Video View Seager, Corey LAD Senzatela, Antonio COL 1 Coors Field PL 425 106.4 35.5 82.4 152 -17 -1 28 411 28
06/16/17 Video View Panik, Joe SF Senzatela, Antonio COL 1 Coors Field JE 373 95.3 36.6 67.3 110 0 5 20 347 4
06/22/17 Video View Blackmon, Charlie COL Godley, Zack ARI 1 Coors Field PL 430 104.0 27.2 83.3 92 -3 0 9 422 29
07/08/17 Video View Arenado, Nolan COL Quintana, Jose CHW 1 Coors Field PL 397 100.5 34.2 115.5 107 0 4 19 375 29
07/17/17 Video View Blackmon, Charlie COL Perdomo, Luis SD 1 Coors Field ND 453 111.6 29.0 66.4 99 1 1 15 436 30
07/18/17 Video View Reynolds, Mark COL Lamet, Dinelson SD 1 Coors Field PL 434 101.9 29.7 87.5 98 6 2 13 415 25
08/15/17 Video View Arenado, Nolan COL Newcomb, Sean ATL 1 Coors Field JE 427 101.7 29.5 90.7 101 0 0 12 414 23


About HitTracker | Contact Us
© 2006-2017 HitTrackerOnline